createdAt,value
2018-04-19T00:00:59.406Z,12.60
2018-04-19T00:03:28.521Z,12.60
2018-04-19T00:05:57.708Z,12.60
2018-04-19T00:08:26.799Z,12.60
2018-04-19T00:10:55.904Z,12.60
2018-04-19T00:13:24.992Z,12.70
2018-04-19T00:15:54.860Z,12.70
2018-04-19T00:18:23.981Z,12.70
2018-04-19T00:20:53.071Z,12.60
2018-04-19T00:23:22.145Z,12.60
2018-04-19T00:25:52.075Z,12.60
2018-04-19T00:28:21.927Z,12.60
2018-04-19T00:30:51.041Z,12.60
2018-04-19T00:33:20.155Z,12.60
2018-04-19T00:35:49.300Z,12.60
2018-04-19T00:38:18.423Z,12.60
2018-04-19T00:40:47.548Z,12.60
2018-04-19T00:43:16.713Z,12.60
2018-04-19T00:45:45.832Z,12.60
2018-04-19T00:48:14.981Z,12.60
2018-04-19T00:50:44.063Z,12.60
2018-04-19T00:53:13.143Z,12.60
2018-04-19T00:55:42.216Z,12.60
2018-04-19T00:58:11.406Z,12.50
2018-04-19T01:00:40.516Z,12.50
2018-04-19T01:03:09.620Z,12.50
2018-04-19T01:05:38.712Z,12.50
2018-04-19T01:08:07.831Z,12.50
2018-04-19T01:10:36.964Z,12.60
2018-04-19T01:13:06.039Z,12.50
2018-04-19T01:15:35.180Z,12.60
2018-04-19T01:18:04.312Z,12.50
2018-04-19T01:20:34.163Z,12.50
2018-04-19T01:23:03.307Z,12.50
2018-04-19T01:25:32.425Z,12.50
2018-04-19T01:28:01.578Z,12.50
2018-04-19T01:30:31.435Z,12.50
2018-04-19T01:33:00.598Z,12.40
2018-04-19T01:35:47.668Z,12.40
2018-04-19T01:38:16.763Z,12.40
2018-04-19T01:40:46.605Z,12.30
2018-04-19T01:43:15.760Z,12.30
2018-04-19T01:45:44.839Z,12.30
2018-04-19T01:48:13.907Z,12.30
2018-04-19T01:50:43.057Z,12.30
2018-04-19T01:53:12.181Z,12.30
2018-04-19T01:55:41.268Z,12.20
2018-04-19T01:58:10.347Z,12.20
2018-04-19T02:00:39.480Z,12.20
2018-04-19T02:03:09.352Z,11.60
2018-04-19T02:05:38.450Z,11.60
2018-04-19T02:08:07.538Z,11.50
2018-04-19T02:10:36.647Z,11.30
2018-04-19T02:13:05.803Z,11.30
2018-04-19T02:15:34.980Z,11.30
2018-04-19T02:18:04.100Z,11.30
2018-04-19T02:20:33.229Z,11.30
2018-04-19T02:23:02.315Z,11.40
2018-04-19T02:25:31.395Z,11.40
2018-04-19T02:28:01.272Z,11.40
2018-04-19T02:30:30.379Z,11.40
2018-04-19T02:32:59.540Z,11.40
2018-04-19T02:35:29.391Z,11.40
2018-04-19T02:37:58.580Z,11.40
2018-04-19T02:40:28.441Z,11.50
2018-04-19T02:42:57.547Z,11.40
2018-04-19T02:45:26.632Z,11.50
2018-04-19T02:47:56.535Z,11.50
2018-04-19T02:50:25.676Z,11.40
2018-04-19T02:52:54.748Z,11.30
2018-04-19T02:55:23.927Z,11.20
2018-04-19T02:57:53.052Z,11.20
2018-04-19T03:00:22.175Z,11.20
2018-04-19T03:02:51.263Z,11.30
2018-04-19T03:05:20.575Z,11.20
2018-04-19T03:07:49.727Z,11.20
2018-04-19T03:10:19.596Z,11.20
2018-04-19T03:12:48.764Z,11.20
2018-04-19T03:15:17.855Z,11.20
2018-04-19T03:17:46.980Z,11.20
2018-04-19T03:20:16.093Z,11.10
2018-04-19T03:22:45.179Z,11.10
2018-04-19T03:25:14.324Z,11.10
2018-04-19T03:27:43.454Z,11.10
2018-04-19T03:30:13.376Z,11.00
2018-04-19T03:32:43.274Z,10.90
2018-04-19T03:35:12.363Z,10.90
2018-04-19T03:37:41.468Z,10.90
2018-04-19T03:40:10.558Z,10.90
2018-04-19T03:42:39.639Z,10.90
2018-04-19T03:45:08.755Z,10.90
2018-04-19T03:47:38.637Z,10.90
2018-04-19T03:50:07.727Z,10.90
2018-04-19T03:52:36.855Z,10.90
2018-04-19T03:55:05.944Z,10.90
2018-04-19T03:57:35.096Z,10.90
2018-04-19T04:00:04.432Z,10.90
2018-04-19T04:02:33.603Z,10.90
2018-04-19T04:05:02.692Z,10.90
2018-04-19T04:07:32.271Z,10.90
2018-04-19T04:10:01.357Z,10.90
2018-04-19T04:12:30.481Z,10.90
2018-04-19T04:14:59.567Z,10.90
2018-04-19T04:17:46.541Z,10.90
2018-04-19T04:20:33.599Z,10.90
2018-04-19T04:23:31.140Z,11.00
2018-04-19T04:26:00.233Z,11.00
2018-04-19T04:28:29.353Z,11.10
2018-04-19T04:30:58.513Z,11.10
2018-04-19T04:33:27.644Z,11.00
2018-04-19T04:35:56.762Z,11.00
2018-04-19T04:38:25.859Z,11.00
2018-04-19T04:40:55.037Z,11.00
2018-04-19T04:43:24.926Z,11.20
2018-04-19T04:45:54.043Z,11.20
2018-04-19T04:48:23.140Z,11.30
2018-04-19T04:50:52.315Z,11.20
2018-04-19T04:53:21.432Z,11.10
2018-04-19T04:55:50.522Z,11.10
2018-04-19T04:58:20.406Z,11.20
2018-04-19T05:00:50.289Z,11.30
2018-04-19T05:03:19.400Z,11.30
2018-04-19T05:05:49.278Z,11.50
2018-04-19T05:08:18.443Z,11.50
2018-04-19T05:10:48.316Z,11.60
2018-04-19T05:13:17.447Z,11.60
2018-04-19T05:15:46.595Z,11.70
2018-04-19T05:18:15.681Z,11.80
2018-04-19T05:20:44.766Z,11.90
2018-04-19T05:23:13.851Z,12.00
2018-04-19T05:25:42.964Z,12.10
2018-04-19T05:28:12.047Z,12.20
2018-04-19T05:30:41.184Z,12.30
2018-04-19T05:33:10.342Z,12.40
2018-04-19T05:35:39.424Z,12.50
2018-04-19T05:38:08.584Z,12.60
2018-04-19T05:40:38.430Z,12.80
2018-04-19T05:43:07.539Z,12.70
2018-04-19T05:45:36.661Z,12.80
2018-04-19T05:48:05.867Z,12.90
2018-04-19T05:50:34.938Z,12.90
2018-04-19T05:53:04.034Z,13.00
2018-04-19T05:55:33.114Z,13.00
2018-04-19T05:58:02.231Z,13.20
2018-04-19T06:00:31.313Z,13.30
2018-04-19T06:03:00.473Z,13.30
2018-04-19T06:05:29.622Z,13.40
2018-04-19T06:07:59.467Z,13.60
2018-04-19T06:10:33.904Z,13.60
2018-04-19T06:13:03.008Z,13.70
2018-04-19T06:15:32.159Z,13.80
2018-04-19T06:18:01.277Z,13.90
2018-04-19T06:20:30.359Z,14.00
2018-04-19T06:22:59.436Z,14.10
2018-04-19T06:25:29.355Z,14.30
2018-04-19T06:27:59.194Z,14.50
2018-04-19T06:30:29.079Z,14.60
2018-04-19T06:32:58.163Z,14.60
2018-04-19T06:35:27.243Z,14.70
2018-04-19T06:37:57.211Z,14.80
2018-04-19T06:40:26.325Z,14.90
2018-04-19T06:42:55.455Z,15.00
2018-04-19T06:45:24.576Z,15.20
2018-04-19T06:47:53.655Z,15.30
2018-04-19T06:50:22.767Z,15.40
2018-04-19T06:52:51.884Z,15.60
2018-04-19T06:55:21.854Z,15.80
2018-04-19T06:57:51.797Z,15.90
2018-04-19T07:00:20.960Z,15.90
2018-04-19T07:02:50.042Z,16.00
2018-04-19T07:05:19.123Z,16.10
2018-04-19T07:07:49.022Z,16.40
2018-04-19T07:10:18.189Z,16.40
2018-04-19T07:12:47.291Z,16.60
2018-04-19T07:15:16.401Z,16.70
2018-04-19T07:17:45.517Z,16.80
2018-04-19T07:20:14.658Z,16.90
2018-04-19T07:22:43.772Z,17.10
2018-04-19T07:25:12.942Z,17.20
2018-04-19T07:27:42.096Z,17.30
2018-04-19T07:30:11.983Z,17.40
2018-04-19T07:32:41.090Z,17.50
2018-04-19T07:35:10.204Z,17.60
2018-04-19T07:37:39.314Z,17.70
2018-04-19T07:40:08.424Z,17.80
2018-04-19T07:42:37.532Z,17.90
2018-04-19T07:45:06.611Z,18.00
2018-04-19T07:47:35.828Z,18.10
2018-04-19T07:50:04.908Z,18.20
2018-04-19T07:52:33.984Z,18.40
2018-04-19T07:55:03.091Z,18.50
2018-04-19T07:57:32.195Z,18.50
2018-04-19T08:00:01.321Z,18.70
2018-04-19T08:02:30.404Z,18.80
2018-04-19T08:05:00.284Z,18.90
2018-04-19T08:07:29.350Z,18.90
2018-04-19T08:09:59.225Z,19.20
2018-04-19T08:12:28.339Z,19.20
2018-04-19T08:14:57.407Z,19.30
2018-04-19T08:17:26.484Z,19.40
2018-04-19T08:19:55.555Z,19.40
2018-04-19T08:22:24.628Z,19.60
2018-04-19T08:24:53.701Z,19.70
2018-04-19T08:27:24.313Z,19.80
2018-04-19T08:29:53.423Z,19.80
2018-04-19T08:32:22.495Z,19.90
2018-04-19T08:34:52.415Z,20.20
2018-04-19T08:37:22.293Z,20.30
2018-04-19T08:39:51.468Z,20.20
2018-04-19T08:42:20.572Z,20.30
2018-04-19T08:44:49.861Z,20.40
2018-04-19T08:47:19.013Z,20.50
2018-04-19T08:49:48.135Z,20.50
2018-04-19T08:52:17.241Z,20.60
2018-04-19T08:54:46.318Z,20.70
2018-04-19T08:57:15.424Z,20.80
2018-04-19T08:59:44.609Z,20.90
2018-04-19T09:02:13.747Z,21.00
2018-04-19T09:04:42.883Z,21.10
2018-04-19T09:07:11.997Z,21.20
2018-04-19T09:09:41.124Z,21.30
2018-04-19T09:12:10.218Z,21.40
2018-04-19T09:14:40.078Z,21.70
2018-04-19T09:17:09.151Z,21.70
2018-04-19T09:19:38.986Z,21.80
2018-04-19T09:22:08.148Z,21.80
2018-04-19T09:24:37.252Z,21.80
2018-04-19T09:27:06.323Z,21.80
2018-04-19T09:29:35.451Z,21.90
2018-04-19T09:32:05.723Z,21.80
2018-04-19T09:34:34.824Z,21.80
2018-04-19T09:37:03.904Z,21.90
2018-04-19T09:39:32.979Z,21.80
2018-04-19T09:42:03.535Z,21.90
2018-04-19T09:44:33.376Z,21.80
2018-04-19T09:47:02.472Z,21.70
2018-04-19T09:49:32.306Z,22.00
2018-04-19T09:52:01.482Z,22.00
2018-04-19T09:54:30.558Z,22.10
2018-04-19T09:56:59.628Z,22.20
2018-04-19T09:59:29.500Z,22.40
2018-04-19T10:02:04.531Z,22.30
2018-04-19T10:04:33.599Z,22.50
2018-04-19T10:07:02.755Z,22.60
2018-04-19T10:09:31.822Z,22.80
2018-04-19T10:12:02.232Z,22.60
2018-04-19T10:14:31.389Z,22.60
2018-04-19T10:17:00.549Z,22.60
2018-04-19T10:19:29.619Z,22.70
2018-04-19T10:21:58.980Z,22.90
2018-04-19T10:24:28.079Z,23.10
2018-04-19T10:26:57.151Z,23.10
2018-04-19T10:29:27.074Z,23.30
2018-04-19T10:31:56.911Z,23.40
2018-04-19T10:34:26.018Z,23.30
2018-04-19T10:36:55.885Z,23.50
2018-04-19T10:39:24.997Z,23.50
2018-04-19T10:41:54.112Z,23.60
2018-04-19T10:44:23.221Z,23.70
2018-04-19T10:46:52.320Z,23.60
2018-04-19T10:49:21.428Z,23.40
2018-04-19T10:51:50.499Z,23.60
2018-04-19T10:54:20.395Z,24.00
2018-04-19T10:56:49.501Z,24.00
2018-04-19T10:59:18.609Z,24.10
2018-04-19T11:01:47.695Z,24.10
2018-04-19T11:04:16.819Z,24.10
2018-04-19T11:06:45.957Z,24.10
2018-04-19T11:09:15.187Z,24.00
2018-04-19T11:11:44.255Z,24.00
2018-04-19T11:14:13.356Z,24.10
2018-04-19T11:16:42.461Z,23.90
2018-04-19T11:19:11.558Z,23.70
2018-04-19T11:21:40.655Z,23.70
2018-04-19T11:24:09.837Z,23.60
2018-04-19T11:26:38.944Z,23.70
2018-04-19T11:29:08.019Z,23.70
2018-04-19T11:31:37.140Z,23.80
2018-04-19T11:34:06.213Z,23.80
2018-04-19T11:36:35.322Z,24.00
2018-04-19T11:39:04.440Z,24.20
2018-04-19T11:41:33.515Z,24.40
2018-04-19T11:44:02.688Z,24.60
2018-04-19T11:46:31.789Z,24.80
2018-04-19T11:49:00.896Z,25.00
2018-04-19T11:51:30.014Z,24.70
2018-04-19T11:53:59.082Z,24.40
2018-04-19T11:56:28.948Z,24.30
2018-04-19T11:58:58.087Z,24.30
2018-04-19T12:01:27.187Z,24.30
2018-04-19T12:03:56.246Z,24.60
2018-04-19T12:06:26.084Z,25.00
2018-04-19T12:08:55.156Z,25.00
2018-04-19T12:11:24.294Z,25.10
2018-04-19T12:13:54.214Z,24.90
2018-04-19T12:16:24.083Z,25.00
2018-04-19T12:18:53.192Z,25.00
2018-04-19T12:21:22.269Z,25.10
2018-04-19T12:23:52.096Z,25.60
2018-04-19T12:26:21.200Z,25.50
2018-04-19T12:28:51.136Z,25.70
2018-04-19T12:31:21.008Z,25.80
2018-04-19T12:33:50.083Z,25.70
2018-04-19T12:36:19.185Z,25.50
2018-04-19T12:38:49.074Z,25.90
2018-04-19T12:41:18.147Z,25.90
2018-04-19T12:43:47.220Z,25.90
2018-04-19T12:46:17.090Z,25.70
2018-04-19T12:48:46.226Z,25.70
2018-04-19T12:51:15.331Z,25.60
2018-04-19T12:53:44.421Z,25.70
2018-04-19T12:56:13.515Z,25.70
2018-04-19T12:58:42.617Z,25.80
2018-04-19T13:01:11.816Z,25.90
2018-04-19T13:03:41.642Z,26.10
2018-04-19T13:06:11.509Z,25.70
2018-04-19T13:08:40.610Z,25.70
2018-04-19T13:11:09.776Z,25.70
2018-04-19T13:13:38.884Z,25.80
2018-04-19T13:16:07.994Z,25.70
2018-04-19T13:18:37.359Z,25.40
2018-04-19T13:21:06.436Z,25.20
2018-04-19T13:23:36.304Z,25.40
2018-04-19T13:26:05.379Z,25.40
2018-04-19T13:28:35.203Z,25.30
2018-04-19T13:31:05.072Z,25.50
2018-04-19T13:33:34.173Z,25.40
2018-04-19T13:36:03.496Z,25.50
2018-04-19T13:38:32.624Z,25.60
2018-04-19T13:41:01.741Z,25.90
2018-04-19T13:43:30.861Z,26.10
2018-04-19T13:45:59.963Z,26.20
2018-04-19T13:48:29.035Z,26.10
2018-04-19T13:50:58.101Z,26.00
2018-04-19T13:53:27.191Z,26.10
2018-04-19T13:55:56.304Z,26.10
2018-04-19T13:58:25.444Z,25.70
2018-04-19T14:00:55.286Z,25.40
2018-04-19T14:03:25.233Z,25.50
2018-04-19T14:05:54.358Z,25.50
2018-04-19T14:08:24.265Z,25.90
2018-04-19T14:10:53.400Z,25.90
2018-04-19T14:13:22.488Z,26.00
2018-04-19T14:15:51.637Z,25.60
2018-04-19T14:18:20.743Z,25.60
2018-04-19T14:20:49.852Z,25.60
2018-04-19T14:23:18.940Z,25.90
2018-04-19T14:25:48.045Z,26.20
2018-04-19T14:28:17.125Z,26.40
2018-04-19T14:30:46.980Z,26.10
2018-04-19T14:33:16.043Z,26.10
2018-04-19T14:35:45.180Z,26.20
2018-04-19T14:38:15.045Z,26.20
2018-04-19T14:40:44.150Z,26.20
2018-04-19T14:43:13.215Z,26.20
2018-04-19T14:45:42.284Z,25.80
2018-04-19T14:48:11.352Z,25.60
2018-04-19T14:50:41.212Z,25.80
2018-04-19T14:53:10.352Z,25.80
2018-04-19T14:55:39.418Z,26.00
2018-04-19T14:58:08.512Z,26.20
2018-04-19T15:00:38.399Z,26.30
2018-04-19T15:03:07.715Z,26.30
2018-04-19T15:05:36.900Z,26.30
2018-04-19T15:08:06.009Z,26.10
2018-04-19T15:10:35.121Z,26.10
2018-04-19T15:13:04.221Z,25.80
2018-04-19T15:15:33.291Z,25.80
2018-04-19T15:18:02.388Z,25.90
2018-04-19T15:20:31.611Z,25.70
2018-04-19T15:23:00.711Z,25.80
2018-04-19T15:25:31.308Z,25.60
2018-04-19T15:28:00.435Z,25.60
2018-04-19T15:30:30.278Z,25.50
2018-04-19T15:32:59.376Z,25.50
2018-04-19T15:35:28.447Z,25.40
2018-04-19T15:37:58.325Z,25.50
2018-04-19T15:40:27.431Z,25.50
2018-04-19T15:42:56.544Z,25.30
2018-04-19T15:45:25.655Z,25.40
2018-04-19T15:47:54.771Z,25.50
2018-04-19T15:50:23.811Z,25.60
2018-04-19T15:52:52.997Z,25.50
2018-04-19T15:55:22.084Z,25.40
2018-04-19T15:57:51.276Z,25.40
2018-04-19T16:00:20.410Z,25.30
2018-04-19T16:02:49.552Z,25.30
2018-04-19T16:05:18.630Z,25.20
2018-04-19T16:07:47.735Z,25.10
2018-04-19T16:10:16.804Z,25.00
2018-04-19T16:12:46.677Z,24.90
2018-04-19T16:15:15.752Z,24.90
2018-04-19T16:17:45.617Z,24.90
2018-04-19T16:20:14.751Z,24.90
2018-04-19T16:22:43.848Z,25.00
2018-04-19T16:25:12.987Z,24.90
2018-04-19T16:27:42.059Z,24.80
2018-04-19T16:30:11.136Z,24.90
2018-04-19T16:32:40.977Z,25.10
2018-04-19T16:35:10.049Z,25.10
2018-04-19T16:37:39.169Z,25.10
2018-04-19T16:40:09.100Z,25.00
2018-04-19T16:42:39.004Z,24.90
2018-04-19T16:45:08.071Z,24.90
2018-04-19T16:47:37.224Z,24.80
2018-04-19T16:50:06.327Z,24.70
2018-04-19T16:52:35.436Z,24.60
2018-04-19T16:55:04.540Z,24.50
2018-04-19T16:57:33.644Z,24.40
2018-04-19T17:00:02.819Z,24.30
2018-04-19T17:02:31.953Z,24.40
2018-04-19T17:05:01.055Z,24.30
2018-04-19T17:07:30.182Z,24.30
2018-04-19T17:09:59.274Z,24.20
2018-04-19T17:12:28.521Z,24.10
2018-04-19T17:14:57.592Z,24.10
2018-04-19T17:17:26.688Z,24.00
2018-04-19T17:19:55.764Z,23.90
2018-04-19T17:22:24.864Z,23.80
2018-04-19T17:24:53.985Z,23.70
2018-04-19T17:27:23.098Z,23.50
2018-04-19T17:29:52.167Z,23.40
2018-04-19T17:32:21.283Z,23.40
2018-04-19T17:34:50.393Z,23.20
2018-04-19T17:37:19.468Z,23.10
2018-04-19T17:39:49.358Z,22.80
2018-04-19T17:42:18.427Z,22.80
2018-04-19T17:44:47.500Z,22.60
2018-04-19T17:47:16.568Z,22.30
2018-04-19T17:49:45.655Z,22.20
2018-04-19T17:52:14.747Z,22.00
2018-04-19T17:54:43.984Z,21.80
2018-04-19T17:57:13.067Z,21.70
2018-04-19T17:59:42.904Z,21.50
2018-04-19T18:02:12.052Z,21.50
2018-04-19T18:04:41.917Z,21.30
2018-04-19T18:07:11.787Z,21.30
2018-04-19T18:09:40.898Z,21.30
2018-04-19T18:12:10.044Z,21.30
2018-04-19T18:14:39.155Z,21.20
2018-04-19T18:17:08.259Z,21.10
2018-04-19T18:19:37.332Z,21.10
2018-04-19T18:22:06.428Z,21.00
2018-04-19T18:24:36.308Z,20.80
2018-04-19T18:27:05.379Z,20.80
2018-04-19T18:29:34.515Z,20.70
2018-04-19T18:32:03.664Z,20.60
2018-04-19T18:34:32.759Z,20.50
2018-04-19T18:37:01.839Z,20.50
2018-04-19T18:39:30.940Z,20.40
2018-04-19T18:42:00.040Z,20.30
2018-04-19T18:44:29.218Z,20.20
2018-04-19T18:46:58.283Z,20.20
2018-04-19T18:49:27.376Z,20.10
2018-04-19T18:51:56.477Z,20.00
2018-04-19T18:54:25.551Z,19.90
2018-04-19T18:56:54.651Z,19.80
2018-04-19T18:59:23.775Z,19.70
2018-04-19T19:01:52.888Z,19.60
2018-04-19T19:04:22.556Z,19.60
2018-04-19T19:06:51.655Z,19.50
2018-04-19T19:09:20.720Z,19.50
2018-04-19T19:11:49.897Z,19.40
2018-04-19T19:14:18.968Z,19.40
2018-04-19T19:16:48.838Z,19.20
2018-04-19T19:19:35.723Z,19.20
2018-04-19T19:22:05.575Z,19.10
2018-04-19T19:24:34.672Z,19.10
2018-04-19T19:27:04.588Z,18.90
2018-04-19T19:29:34.464Z,18.90
2018-04-19T19:32:03.577Z,18.80
2018-04-19T19:34:32.689Z,18.80
2018-04-19T19:37:01.796Z,18.60
2018-04-19T19:39:30.946Z,18.60
2018-04-19T19:42:00.019Z,18.60
2018-04-19T19:44:29.117Z,18.50
2018-04-19T19:46:58.246Z,18.40
2018-04-19T19:49:27.302Z,18.30
2018-04-19T19:51:57.130Z,18.20
2018-04-19T19:54:26.993Z,18.20
2018-04-19T19:56:56.104Z,18.20
2018-04-19T19:59:25.233Z,18.10
2018-04-19T20:01:54.363Z,18.00
2018-04-19T20:04:23.483Z,18.00
2018-04-19T20:06:52.574Z,18.00
2018-04-19T20:09:21.673Z,17.90
2018-04-19T20:11:50.788Z,17.90
2018-04-19T20:14:19.852Z,17.80
2018-04-19T20:16:49.713Z,17.80
2018-04-19T20:19:18.783Z,17.70
2018-04-19T20:21:48.609Z,17.70
2018-04-19T20:24:18.467Z,17.70
2018-04-19T20:26:47.568Z,17.60
2018-04-19T20:29:16.639Z,17.60
2018-04-19T20:31:45.740Z,17.60
2018-04-19T20:34:14.874Z,17.50
2018-04-19T20:36:44.740Z,17.50
2018-04-19T20:39:13.809Z,17.50
2018-04-19T20:41:43.672Z,17.30
2018-04-19T20:44:12.759Z,17.30
2018-04-19T20:46:42.658Z,17.10
2018-04-19T20:49:11.748Z,17.10
2018-04-19T20:51:40.852Z,17.00
2018-04-19T20:54:10.022Z,17.00
2018-04-19T20:56:39.860Z,17.00
2018-04-19T20:59:08.992Z,16.90
2018-04-19T21:01:38.121Z,16.90
2018-04-19T21:04:07.237Z,16.90
2018-04-19T21:06:36.417Z,16.80
2018-04-19T21:09:07.222Z,16.80
2018-04-19T21:11:36.300Z,16.80
2018-04-19T21:14:05.409Z,16.80
2018-04-19T21:16:34.568Z,16.80
2018-04-19T21:19:04.407Z,16.70
2018-04-19T21:21:34.272Z,16.60
2018-04-19T21:24:03.351Z,16.60
2018-04-19T21:26:32.423Z,16.70
2018-04-19T21:29:01.508Z,16.70
2018-04-19T21:31:30.606Z,16.60
2018-04-19T21:33:59.671Z,16.60
2018-04-19T21:36:29.552Z,16.40
2018-04-19T21:38:58.623Z,16.40
2018-04-19T21:41:27.729Z,16.40
2018-04-19T21:43:56.807Z,16.30
2018-04-19T21:46:26.312Z,16.30
2018-04-19T21:48:55.424Z,16.20
2018-04-19T21:51:24.551Z,16.20
2018-04-19T21:53:53.648Z,16.10
2018-04-19T21:56:22.728Z,16.10
2018-04-19T21:58:51.860Z,16.10
2018-04-19T22:01:21.284Z,16.00
2018-04-19T22:03:51.193Z,15.80
2018-04-19T22:06:20.308Z,15.80
2018-04-19T22:08:49.449Z,15.70
2018-04-19T22:11:18.589Z,15.60
2018-04-19T22:13:47.700Z,15.50
2018-04-19T22:16:17.383Z,15.50
2018-04-19T22:18:46.501Z,15.50
2018-04-19T22:21:15.572Z,15.50
2018-04-19T22:23:44.683Z,15.50
2018-04-19T22:26:13.792Z,15.30
2018-04-19T22:28:42.904Z,15.10
2018-04-19T22:31:11.985Z,15.10
2018-04-19T22:33:41.066Z,14.90
2018-04-19T22:36:10.172Z,14.90
2018-04-19T22:38:39.282Z,14.90
2018-04-19T22:41:08.386Z,14.90
2018-04-19T22:43:37.458Z,14.90
2018-04-19T22:46:06.634Z,14.90
2018-04-19T22:48:36.480Z,14.90
2018-04-19T22:51:05.579Z,14.90
2018-04-19T22:53:35.461Z,14.90
2018-04-19T22:56:04.583Z,14.90
2018-04-19T22:58:33.681Z,14.80
2018-04-19T23:01:02.847Z,14.80
2018-04-19T23:03:32.707Z,14.80
2018-04-19T23:06:01.906Z,14.70
2018-04-19T23:08:31.053Z,14.70
2018-04-19T23:11:00.211Z,14.80
2018-04-19T23:13:29.316Z,14.80
2018-04-19T23:15:59.197Z,14.80
2018-04-19T23:18:28.324Z,14.80
2018-04-19T23:20:57.494Z,14.80
2018-04-19T23:23:26.604Z,14.70
2018-04-19T23:25:55.713Z,14.70
2018-04-19T23:28:24.816Z,14.60
2018-04-19T23:30:54.076Z,14.60
2018-04-19T23:33:23.223Z,14.60
2018-04-19T23:35:52.399Z,14.60
2018-04-19T23:38:21.512Z,14.60
2018-04-19T23:40:51.498Z,14.50
2018-04-19T23:43:20.632Z,14.50
2018-04-19T23:45:49.740Z,14.50
2018-04-19T23:48:18.888Z,14.50
2018-04-19T23:50:47.991Z,14.40
2018-04-19T23:53:17.105Z,14.40
2018-04-19T23:55:46.212Z,14.40
2018-04-19T23:58:15.324Z,14.40
